createdAt,value
2023-05-21T00:02:24.079Z,16.11
2023-05-21T00:04:56.201Z,16.09
2023-05-21T00:07:28.341Z,16.06
2023-05-21T00:10:00.619Z,16.01
2023-05-21T00:12:33.452Z,16.02
2023-05-21T00:15:05.811Z,16.04
2023-05-21T00:17:38.363Z,16.03
2023-05-21T00:20:10.756Z,16.05
2023-05-21T00:22:42.773Z,15.98
2023-05-21T00:25:16.729Z,15.96
2023-05-21T00:27:49.489Z,15.93
2023-05-21T00:30:21.569Z,15.94
2023-05-21T00:32:53.627Z,15.95
2023-05-21T00:35:29.542Z,15.95
2023-05-21T00:38:01.972Z,15.86
2023-05-21T00:40:37.431Z,15.83
2023-05-21T00:43:14.365Z,15.83
2023-05-21T00:45:48.796Z,15.83
2023-05-21T00:48:21.082Z,15.78
2023-05-21T00:50:53.460Z,15.71
2023-05-21T00:53:25.935Z,15.67
2023-05-21T00:55:58.097Z,15.64
2023-05-21T00:58:31.184Z,15.57
2023-05-21T01:01:04.020Z,15.59
2023-05-21T01:03:39.052Z,15.48
2023-05-21T01:06:16.188Z,15.49
2023-05-21T01:08:48.663Z,15.45
2023-05-21T01:11:22.496Z,15.46
2023-05-21T01:13:54.836Z,15.46
2023-05-21T01:16:26.906Z,15.45
2023-05-21T01:18:59.884Z,15.44
2023-05-21T01:21:37.628Z,15.45
2023-05-21T01:24:11.787Z,15.44
2023-05-21T01:26:44.475Z,15.43
2023-05-21T01:29:18.525Z,15.40
2023-05-21T01:31:55.663Z,15.37
2023-05-21T01:34:40.050Z,15.34
2023-05-21T01:37:30.216Z,15.34
2023-05-21T01:40:12.431Z,15.31
2023-05-21T01:42:47.687Z,15.31
2023-05-21T01:45:22.573Z,15.32
2023-05-21T01:47:56.873Z,15.31
2023-05-21T01:50:30.127Z,15.31
2023-05-21T01:53:03.984Z,15.31
2023-05-21T01:55:39.671Z,15.28
2023-05-21T01:58:12.145Z,15.27
2023-05-21T02:00:45.488Z,15.26
2023-05-21T02:03:19.667Z,15.21
2023-05-21T02:05:52.236Z,15.16
2023-05-21T02:08:25.739Z,15.14
2023-05-21T02:10:57.802Z,15.13
2023-05-21T02:13:30.868Z,15.11
2023-05-21T02:16:02.805Z,15.10
2023-05-21T02:18:36.597Z,15.08
2023-05-21T02:21:08.557Z,15.06
2023-05-21T02:23:42.407Z,14.99
2023-05-21T02:26:14.493Z,14.90
2023-05-21T02:28:46.560Z,14.91
2023-05-21T02:31:18.541Z,14.88
2023-05-21T02:33:51.061Z,14.85
2023-05-21T02:36:25.545Z,14.86
2023-05-21T02:38:57.955Z,14.87
2023-05-21T02:41:30.021Z,14.87
2023-05-21T02:44:02.079Z,14.86
2023-05-21T02:46:34.121Z,14.85
2023-05-21T02:49:06.460Z,14.84
2023-05-21T02:51:38.459Z,14.81
2023-05-21T02:54:13.447Z,14.80
2023-05-21T02:56:48.506Z,14.79
2023-05-21T02:59:20.566Z,14.74
2023-05-21T03:01:53.907Z,14.74
2023-05-21T03:04:28.399Z,14.73
2023-05-21T03:07:02.310Z,14.73
2023-05-21T03:09:34.334Z,14.72
2023-05-21T03:12:09.829Z,14.67
2023-05-21T03:14:46.629Z,14.67
2023-05-21T03:17:19.305Z,14.70
2023-05-21T03:19:52.279Z,14.70
2023-05-21T03:22:24.230Z,14.69
2023-05-21T03:24:56.558Z,14.67
2023-05-21T03:27:28.986Z,14.68
2023-05-21T03:30:01.362Z,14.70
2023-05-21T03:32:38.180Z,14.70
2023-05-21T03:35:11.299Z,14.70
2023-05-21T03:37:43.271Z,14.70
2023-05-21T03:40:18.122Z,14.71
2023-05-21T03:42:50.046Z,14.72
2023-05-21T03:45:22.403Z,14.71
2023-05-21T03:48:20.168Z,14.73
2023-05-21T03:50:52.342Z,14.74
2023-05-21T03:53:24.772Z,14.76
2023-05-21T03:55:56.889Z,14.79
2023-05-21T03:58:30.937Z,14.80
2023-05-21T04:01:05.023Z,14.84
2023-05-21T04:03:40.086Z,14.90
2023-05-21T04:06:13.447Z,14.95
2023-05-21T04:08:45.644Z,15.00
2023-05-21T04:11:17.922Z,15.05
2023-05-21T04:13:50.591Z,15.09
2023-05-21T04:16:24.726Z,15.18
2023-05-21T04:18:57.778Z,15.27
2023-05-21T04:21:32.559Z,15.31
2023-05-21T04:24:04.627Z,15.42
2023-05-21T04:26:56.236Z,15.54
2023-05-21T04:29:30.143Z,15.68
2023-05-21T04:32:02.679Z,15.81
2023-05-21T04:34:34.849Z,15.95
2023-05-21T04:37:07.142Z,16.07
2023-05-21T04:39:41.259Z,16.21
2023-05-21T04:42:14.270Z,16.34
2023-05-21T04:44:46.734Z,16.47
2023-05-21T04:47:19.567Z,16.62
2023-05-21T04:49:53.561Z,16.77
2023-05-21T04:52:27.081Z,16.87
2023-05-21T04:54:59.307Z,16.82
2023-05-21T04:57:31.536Z,16.89
2023-05-21T05:00:05.845Z,17.11
2023-05-21T05:02:43.496Z,17.32
2023-05-21T05:05:18.248Z,17.46
2023-05-21T05:07:50.144Z,17.62
2023-05-21T05:10:22.350Z,17.87
2023-05-21T05:12:55.181Z,18.06
2023-05-21T05:15:27.277Z,18.28
2023-05-21T05:17:59.697Z,18.47
2023-05-21T05:20:34.182Z,18.73
2023-05-21T05:23:06.322Z,18.95
2023-05-21T05:25:38.727Z,18.93
2023-05-21T05:28:10.980Z,18.96
2023-05-21T05:30:42.813Z,19.02
2023-05-21T05:33:24.662Z,19.15
2023-05-21T05:35:56.668Z,19.07
2023-05-21T05:38:28.794Z,19.22
2023-05-21T05:41:04.178Z,19.51
2023-05-21T05:43:36.620Z,19.88
2023-05-21T05:46:09.360Z,20.13
2023-05-21T05:48:41.762Z,20.32
2023-05-21T05:51:15.481Z,20.53
2023-05-21T05:53:48.204Z,20.75
2023-05-21T05:56:23.076Z,21.01
2023-05-21T05:58:55.303Z,21.34
2023-05-21T06:01:27.257Z,21.62
2023-05-21T06:03:59.580Z,21.60
2023-05-21T06:06:36.869Z,21.58
2023-05-21T06:09:08.851Z,21.82
2023-05-21T06:11:40.770Z,22.25
2023-05-21T06:14:15.616Z,22.50
2023-05-21T06:16:47.804Z,22.60
2023-05-21T06:19:22.779Z,22.76
2023-05-21T06:21:54.951Z,23.04
2023-05-21T06:24:27.212Z,23.03
2023-05-21T06:26:59.599Z,22.99
2023-05-21T06:29:31.859Z,23.16
2023-05-21T06:32:09.191Z,23.05
2023-05-21T06:34:41.482Z,23.20
2023-05-21T06:37:13.594Z,23.03
2023-05-21T06:39:46.104Z,23.13
2023-05-21T06:42:18.370Z,23.40
2023-05-21T06:45:19.708Z,23.87
2023-05-21T06:47:52.135Z,24.05
2023-05-21T06:50:24.176Z,24.19
2023-05-21T06:52:56.334Z,24.10
2023-05-21T06:55:28.361Z,24.07
2023-05-21T06:58:18.974Z,24.37
2023-05-21T07:00:52.239Z,24.69
2023-05-21T07:03:25.912Z,24.82
2023-05-21T07:05:58.909Z,24.74
2023-05-21T07:08:30.899Z,24.53
2023-05-21T07:11:04.284Z,24.46
2023-05-21T07:13:38.230Z,24.43
2023-05-21T07:16:14.041Z,24.69
2023-05-21T07:18:47.609Z,24.94
2023-05-21T07:21:20.154Z,24.81
2023-05-21T07:23:53.634Z,24.94
2023-05-21T07:26:26.705Z,25.27
2023-05-21T07:32:31.919Z,25.58
2023-05-21T07:35:09.686Z,26.07
2023-05-21T07:37:42.661Z,26.23
2023-05-21T07:40:15.162Z,25.98
2023-05-21T07:42:48.294Z,26.15
2023-05-21T07:45:24.297Z,26.55
2023-05-21T07:47:59.378Z,26.98
2023-05-21T07:50:32.847Z,26.62
2023-05-21T07:53:05.613Z,26.66
2023-05-21T07:55:38.559Z,26.71
2023-05-21T07:58:13.965Z,26.81
2023-05-21T08:00:47.963Z,26.75
2023-05-21T08:03:20.805Z,26.86
2023-05-21T08:05:54.678Z,27.30
2023-05-21T08:08:27.241Z,27.55
2023-05-21T08:11:01.856Z,27.68
2023-05-21T08:13:34.920Z,27.58
2023-05-21T08:16:08.779Z,27.45
2023-05-21T08:18:41.577Z,27.52
2023-05-21T08:21:13.526Z,27.61
2023-05-21T08:23:49.962Z,27.78
2023-05-21T08:26:22.011Z,27.62
2023-05-21T08:28:53.964Z,27.60
2023-05-21T08:31:26.428Z,27.80
2023-05-21T08:34:00.742Z,27.61
2023-05-21T08:36:50.168Z,27.35
2023-05-21T08:39:48.109Z,27.85
2023-05-21T08:42:45.608Z,28.29
2023-05-21T08:45:23.570Z,28.48
2023-05-21T08:47:57.600Z,28.38
2023-05-21T08:50:32.806Z,28.13
2023-05-21T08:53:19.883Z,27.81
2023-05-21T08:56:01.971Z,27.80
2023-05-21T08:58:53.050Z,27.90
2023-05-21T09:01:28.405Z,27.97
2023-05-21T09:06:52.069Z,28.10
2023-05-21T09:09:47.121Z,27.91
2023-05-21T09:12:19.665Z,27.86
2023-05-21T09:14:55.810Z,27.73
2023-05-21T09:17:33.600Z,27.82
2023-05-21T09:20:18.204Z,28.22
2023-05-21T09:23:05.436Z,28.32
2023-05-21T09:25:38.390Z,28.13
2023-05-21T09:28:16.626Z,28.12
2023-05-21T09:30:54.736Z,28.49
2023-05-21T09:33:29.849Z,28.77
2023-05-21T09:36:02.611Z,28.65
2023-05-21T09:38:37.994Z,28.67
2023-05-21T09:41:11.374Z,28.88
2023-05-21T09:43:45.082Z,28.66
2023-05-21T09:46:40.854Z,28.38
2023-05-21T09:49:25.038Z,28.39
2023-05-21T09:51:58.585Z,28.44
2023-05-21T09:54:35.034Z,28.83
2023-05-21T09:57:06.917Z,28.97
2023-05-21T09:59:39.765Z,28.90
2023-05-21T10:02:24.730Z,28.97
2023-05-21T10:04:57.507Z,28.92
2023-05-21T10:07:29.785Z,28.80
2023-05-21T10:10:14.804Z,29.02
2023-05-21T10:12:51.164Z,28.92
2023-05-21T10:15:25.131Z,29.04
2023-05-21T10:17:57.755Z,29.34
2023-05-21T10:20:30.049Z,29.69
2023-05-21T10:23:03.426Z,29.54
2023-05-21T10:26:03.868Z,29.52
2023-05-21T10:28:37.892Z,29.35
2023-05-21T10:31:10.733Z,29.43
2023-05-21T10:33:43.615Z,29.55
2023-05-21T10:36:18.966Z,29.78
2023-05-21T10:38:51.424Z,29.68
2023-05-21T10:41:26.882Z,29.74
2023-05-21T10:44:20.535Z,29.64
2023-05-21T10:47:18.709Z,29.43
2023-05-21T10:50:11.374Z,29.28
2023-05-21T10:52:57.346Z,28.94
2023-05-21T10:55:32.570Z,29.09
2023-05-21T10:58:29.903Z,29.57
2023-05-21T11:01:06.129Z,29.60
2023-05-21T11:03:38.344Z,29.79
2023-05-21T11:06:22.611Z,29.88
2023-05-21T11:08:55.704Z,29.86
2023-05-21T11:11:51.355Z,29.86
2023-05-21T11:14:37.020Z,29.46
2023-05-21T11:17:14.933Z,29.43
2023-05-21T11:19:51.535Z,29.46
2023-05-21T11:22:25.340Z,29.38
2023-05-21T11:25:01.984Z,29.23
2023-05-21T11:27:36.814Z,28.87
2023-05-21T11:30:10.805Z,28.47
2023-05-21T11:33:03.997Z,28.28
2023-05-21T11:35:55.439Z,28.24
2023-05-21T11:38:34.123Z,28.31
2023-05-21T11:41:05.993Z,28.29
2023-05-21T11:43:40.549Z,27.96
2023-05-21T11:46:12.636Z,28.21
2023-05-21T11:48:44.774Z,28.59
2023-05-21T11:51:16.691Z,28.66
2023-05-21T11:53:49.032Z,28.72
2023-05-21T11:56:20.913Z,28.64
2023-05-21T11:58:55.211Z,28.62
2023-05-21T12:01:28.080Z,28.68
2023-05-21T12:04:03.532Z,28.87
2023-05-21T12:06:35.386Z,28.59
2023-05-21T12:09:07.451Z,28.28
2023-05-21T12:11:41.984Z,28.04
2023-05-21T12:14:14.122Z,28.04
2023-05-21T12:16:46.573Z,28.05
2023-05-21T12:19:19.303Z,28.24
2023-05-21T12:21:53.210Z,28.45
2023-05-21T12:24:24.915Z,28.62
2023-05-21T12:27:01.965Z,28.61
2023-05-21T12:29:33.793Z,28.41
2023-05-21T12:32:07.578Z,28.11
2023-05-21T12:34:47.110Z,27.84
2023-05-21T12:37:23.231Z,27.67
2023-05-21T12:39:55.656Z,27.58
2023-05-21T12:42:31.694Z,27.52
2023-05-21T12:45:10.403Z,27.51
2023-05-21T12:47:48.244Z,27.58
2023-05-21T12:50:20.931Z,27.47
2023-05-21T12:52:56.495Z,27.64
2023-05-21T12:55:28.687Z,27.84
2023-05-21T12:58:09.314Z,27.99
2023-05-21T13:00:42.162Z,28.09
2023-05-21T13:03:16.729Z,28.21
2023-05-21T13:05:49.396Z,28.28
2023-05-21T13:08:21.274Z,28.25
2023-05-21T13:10:53.587Z,28.28
2023-05-21T13:13:25.543Z,28.16
2023-05-21T13:15:57.410Z,28.06
2023-05-21T13:18:29.744Z,28.08
2023-05-21T13:21:01.417Z,28.15
2023-05-21T13:23:33.268Z,28.22
2023-05-21T13:26:05.016Z,28.28
2023-05-21T13:28:36.910Z,28.36
2023-05-21T13:31:10.872Z,28.45
2023-05-21T13:33:44.832Z,28.51
2023-05-21T13:36:17.026Z,28.51
2023-05-21T13:38:51.144Z,28.52
2023-05-21T13:41:23.045Z,28.54
2023-05-21T13:43:55.073Z,28.38
2023-05-21T13:46:27.127Z,28.23
2023-05-21T13:48:58.955Z,28.25
2023-05-21T13:51:38.765Z,28.15
2023-05-21T13:54:11.407Z,28.10
2023-05-21T13:56:43.446Z,28.11
2023-05-21T13:59:16.844Z,28.08
2023-05-21T14:01:50.139Z,28.05
2023-05-21T14:04:24.914Z,28.08
2023-05-21T14:06:57.223Z,27.99
2023-05-21T14:09:29.640Z,28.02
2023-05-21T14:12:06.596Z,28.13
2023-05-21T14:14:40.566Z,27.98
2023-05-21T14:17:13.519Z,28.08
2023-05-21T14:19:45.471Z,27.93
2023-05-21T14:22:19.821Z,27.86
2023-05-21T14:24:52.806Z,27.92
2023-05-21T14:27:24.884Z,27.84
2023-05-21T14:29:56.704Z,27.86
2023-05-21T14:32:28.599Z,27.87
2023-05-21T14:35:00.681Z,27.85
2023-05-21T14:37:32.413Z,27.95
2023-05-21T14:40:07.744Z,27.94
2023-05-21T14:42:39.741Z,27.92
2023-05-21T14:45:19.150Z,27.76
2023-05-21T14:47:51.210Z,27.60
2023-05-21T14:50:23.376Z,27.70
2023-05-21T14:52:55.670Z,27.72
2023-05-21T14:55:30.963Z,27.80
2023-05-21T14:58:08.578Z,27.84
2023-05-21T15:00:40.500Z,27.84
2023-05-21T15:06:12.345Z,27.68
2023-05-21T15:08:43.915Z,27.65
2023-05-21T15:11:15.647Z,27.69
2023-05-21T15:13:47.293Z,27.63
2023-05-21T15:16:19.815Z,27.63
2023-05-21T15:18:52.074Z,27.64
2023-05-21T15:21:27.952Z,27.64
2023-05-21T15:23:59.874Z,27.66
2023-05-21T15:26:31.506Z,27.65
2023-05-21T15:29:03.986Z,27.60
2023-05-21T15:31:35.697Z,27.59
2023-05-21T15:34:07.462Z,27.61
2023-05-21T15:36:42.281Z,27.52
2023-05-21T15:39:15.225Z,27.46
2023-05-21T15:41:47.001Z,27.45
2023-05-21T15:44:20.972Z,27.47
2023-05-21T15:46:54.847Z,27.48
2023-05-21T15:49:26.498Z,27.47
2023-05-21T15:52:00.329Z,27.50
2023-05-21T15:54:31.997Z,27.49
2023-05-21T15:57:03.672Z,27.51
2023-05-21T15:59:35.333Z,27.47
2023-05-21T16:02:07.509Z,27.39
2023-05-21T16:04:39.193Z,27.42
2023-05-21T16:07:12.069Z,27.38
2023-05-21T16:09:44.569Z,27.36
2023-05-21T16:12:16.411Z,27.28
2023-05-21T16:14:49.924Z,27.27
2023-05-21T16:17:21.713Z,27.20
2023-05-21T16:19:53.606Z,27.21
2023-05-21T16:22:25.341Z,27.15
2023-05-21T16:24:56.979Z,27.16
2023-05-21T16:27:28.561Z,27.14
2023-05-21T16:30:00.356Z,27.07
2023-05-21T16:32:31.987Z,27.05
2023-05-21T16:35:03.902Z,27.04
2023-05-21T16:37:35.628Z,26.96
2023-05-21T16:40:07.569Z,26.92
2023-05-21T16:42:39.968Z,26.89
2023-05-21T16:45:22.346Z,26.82
2023-05-21T16:47:54.106Z,26.80
2023-05-21T16:50:26.586Z,26.71
2023-05-21T16:53:02.258Z,26.71
2023-05-21T16:55:34.798Z,26.66
2023-05-21T16:58:07.161Z,26.62
2023-05-21T17:00:39.165Z,26.58
2023-05-21T17:03:11.904Z,26.53
2023-05-21T17:05:43.639Z,26.43
2023-05-21T17:08:15.248Z,26.33
2023-05-21T17:10:46.905Z,26.13
2023-05-21T17:13:22.826Z,25.92
2023-05-21T17:15:54.951Z,25.77
2023-05-21T17:18:26.567Z,25.68
2023-05-21T17:20:59.111Z,25.44
2023-05-21T17:23:30.822Z,25.35
2023-05-21T17:26:02.448Z,25.25
2023-05-21T17:28:34.040Z,25.13
2023-05-21T17:31:06.901Z,25.04
2023-05-21T17:33:39.137Z,25.01
2023-05-21T17:36:10.742Z,24.92
2023-05-21T17:38:42.760Z,24.81
2023-05-21T17:41:16.377Z,24.74
2023-05-21T17:43:48.001Z,24.64
2023-05-21T17:46:19.681Z,24.66
2023-05-21T17:48:51.364Z,24.57
2023-05-21T17:51:23.017Z,24.54
2023-05-21T17:53:54.688Z,24.40
2023-05-21T17:56:27.405Z,24.31
2023-05-21T17:58:59.014Z,24.25
2023-05-21T18:01:31.043Z,24.12
2023-05-21T18:04:03.669Z,24.05
2023-05-21T18:06:35.483Z,23.97
2023-05-21T18:09:08.007Z,23.91
2023-05-21T18:11:39.722Z,23.86
2023-05-21T18:14:11.363Z,23.82
2023-05-21T18:16:43.090Z,23.73
2023-05-21T18:19:14.813Z,23.71
2023-05-21T18:21:47.492Z,23.67
2023-05-21T18:24:19.132Z,23.65
2023-05-21T18:26:50.703Z,23.61
2023-05-21T18:29:22.255Z,23.51
2023-05-21T18:31:54.092Z,23.44
2023-05-21T18:34:25.796Z,23.38
2023-05-21T18:36:58.809Z,23.31
2023-05-21T18:39:30.776Z,23.26
2023-05-21T18:42:13.045Z,23.22
2023-05-21T18:44:46.508Z,23.13
2023-05-21T18:47:18.290Z,23.03
2023-05-21T18:49:49.910Z,22.92
2023-05-21T18:52:21.579Z,22.92
2023-05-21T18:54:53.993Z,22.76
2023-05-21T18:57:25.758Z,22.67
2023-05-21T18:59:59.550Z,22.61
2023-05-21T19:02:31.921Z,22.54
2023-05-21T19:05:03.676Z,22.44
2023-05-21T19:07:36.234Z,22.36
2023-05-21T19:10:08.060Z,22.31
2023-05-21T19:12:41.889Z,22.28
2023-05-21T19:15:13.648Z,22.23
2023-05-21T19:17:45.249Z,22.16
2023-05-21T19:20:24.029Z,22.09
2023-05-21T19:22:57.130Z,21.96
2023-05-21T19:25:31.813Z,21.90
2023-05-21T19:28:03.427Z,21.85
2023-05-21T19:30:36.486Z,21.85
2023-05-21T19:33:08.432Z,21.81
2023-05-21T19:35:43.170Z,21.76
2023-05-21T19:38:14.952Z,21.71
2023-05-21T19:40:46.686Z,21.64
2023-05-21T19:43:18.267Z,21.59
2023-05-21T19:45:50.090Z,21.54
2023-05-21T19:48:21.820Z,21.49
2023-05-21T19:50:53.490Z,21.46
2023-05-21T19:53:25.063Z,21.41
2023-05-21T19:55:56.994Z,21.32
2023-05-21T19:58:30.476Z,21.28
2023-05-21T20:01:03.446Z,21.22
2023-05-21T20:03:38.241Z,21.13
2023-05-21T20:06:09.915Z,21.04
2023-05-21T20:08:42.024Z,21.01
2023-05-21T20:11:13.720Z,20.97
2023-05-21T20:13:52.348Z,20.94
2023-05-21T20:16:24.350Z,20.88
2023-05-21T20:18:58.328Z,20.80
2023-05-21T20:21:31.552Z,20.80
2023-05-21T20:24:03.568Z,20.79
2023-05-21T20:26:36.531Z,20.72
2023-05-21T20:29:08.350Z,20.65
2023-05-21T20:31:40.077Z,20.63
2023-05-21T20:34:12.402Z,20.58
2023-05-21T20:36:44.127Z,20.58
2023-05-21T20:39:15.894Z,20.55
2023-05-21T20:41:47.834Z,20.50
2023-05-21T20:44:21.311Z,20.48
2023-05-21T20:46:54.082Z,20.46
2023-05-21T20:49:25.920Z,20.43
2023-05-21T20:51:57.593Z,20.37
2023-05-21T20:54:30.809Z,20.32
2023-05-21T20:57:04.360Z,20.33
2023-05-21T20:59:36.013Z,20.28
2023-05-21T21:02:10.929Z,20.24
2023-05-21T21:04:42.609Z,20.23
2023-05-21T21:07:15.465Z,20.21
2023-05-21T21:09:47.351Z,20.17
2023-05-21T21:12:25.246Z,20.13
2023-05-21T21:14:58.373Z,20.09
2023-05-21T21:17:30.036Z,20.02
2023-05-21T21:20:01.674Z,20.04
2023-05-21T21:22:33.619Z,20.04
2023-05-21T21:25:05.548Z,20.03
2023-05-21T21:27:37.236Z,20.00
2023-05-21T21:30:09.105Z,19.97
2023-05-21T21:32:41.224Z,19.97
2023-05-21T21:35:12.968Z,19.95
2023-05-21T21:37:44.625Z,19.93
2023-05-21T21:40:16.455Z,19.90
2023-05-21T21:42:51.185Z,19.84
2023-05-21T21:45:22.796Z,19.81
2023-05-21T21:47:54.483Z,19.79
2023-05-21T21:50:26.092Z,19.79
2023-05-21T21:52:57.998Z,19.76
2023-05-21T21:55:29.736Z,19.74
2023-05-21T21:58:01.409Z,19.71
2023-05-21T22:00:32.992Z,19.66
2023-05-21T22:03:04.699Z,19.60
2023-05-21T22:05:36.365Z,19.57
2023-05-21T22:08:08.057Z,19.54
2023-05-21T22:10:39.881Z,19.50
2023-05-21T22:13:12.895Z,19.48
2023-05-21T22:15:44.545Z,19.47
2023-05-21T22:18:31.966Z,19.47
2023-05-21T22:21:14.319Z,19.47
2023-05-21T22:23:46.378Z,19.42
2023-05-21T22:26:17.942Z,19.39
2023-05-21T22:28:50.036Z,19.29
2023-05-21T22:31:21.746Z,19.26
2023-05-21T22:33:53.381Z,19.22
2023-05-21T22:36:24.945Z,19.15
2023-05-21T22:38:56.644Z,19.13
2023-05-21T22:41:28.221Z,19.09
2023-05-21T22:44:00.071Z,19.07
2023-05-21T22:46:32.097Z,19.04
2023-05-21T22:49:04.672Z,19.00
2023-05-21T22:51:39.358Z,18.97
2023-05-21T22:54:11.047Z,18.92
2023-05-21T22:56:43.221Z,18.85
2023-05-21T22:59:15.073Z,18.79
2023-05-21T23:01:46.706Z,18.74
2023-05-21T23:04:20.697Z,18.71
2023-05-21T23:06:58.310Z,18.67
2023-05-21T23:09:29.963Z,18.65
2023-05-21T23:12:01.534Z,18.62
2023-05-21T23:14:33.391Z,18.59
2023-05-21T23:17:05.748Z,18.57
2023-05-21T23:19:37.639Z,18.51
2023-05-21T23:22:09.407Z,18.47
2023-05-21T23:24:41.173Z,18.42
2023-05-21T23:27:12.810Z,18.41
2023-05-21T23:29:44.383Z,18.40
2023-05-21T23:32:16.026Z,18.37
2023-05-21T23:34:48.371Z,18.34
2023-05-21T23:37:20.096Z,18.32
2023-05-21T23:39:52.008Z,18.29
2023-05-21T23:42:23.658Z,18.24
2023-05-21T23:44:55.415Z,18.21
2023-05-21T23:47:27.001Z,18.17
2023-05-21T23:49:58.748Z,18.14
2023-05-21T23:52:30.519Z,18.12
2023-05-21T23:55:02.182Z,18.09
2023-05-21T23:57:33.716Z,18.05
